TUI235 EDDF-LIPQ
Flight info
| Callsign | TUI235 |
|---|---|
| Flight time | 1h 0m |
| Altitude | 31000 |
| Route | CINDY2D CINDY Z74 LAMPU DCT NOMBO Y161 MAH DCT VAVOR DCT RADIZ DCT URAVA P125 LUPIN |
| Aircraft | B738/M-SDE2E3FGHIRWXY/LB1 |
Departure
| Time | 2026-05-05 07:16 |
|---|---|
| Airport | Frankfurt Main Airport (EDDF) |
Arrival
| Time | 2026-05-05 08:16 |
|---|---|
| Airport | Trieste Airport (LIPQ) |
| Time | Latitude | Longitude | Altitude | Speed | Heading |
|---|---|---|---|---|---|
| 2026-05-05 06:46 | 50.03582 | 8.53658 | 363 ft | 0 kts | 160° |
| 2026-05-05 07:13 | 50.03567 | 8.53667 | 363 ft | 5 kts | 160° |
| 2026-05-05 07:13 | 50.03521 | 8.53684 | 363 ft | 7 kts | 202° |
| 2026-05-05 07:14 | 50.03485 | 8.53600 | 363 ft | 11 kts | 249° |
| 2026-05-05 07:14 | 50.03451 | 8.53457 | 363 ft | 16 kts | 251° |
| 2026-05-05 07:14 | 50.03406 | 8.53268 | 363 ft | 21 kts | 251° |
| 2026-05-05 07:14 | 50.03352 | 8.53035 | 364 ft | 24 kts | 251° |
| 2026-05-05 07:15 | 50.03293 | 8.52790 | 364 ft | 22 kts | 249° |
| 2026-05-05 07:15 | 50.03210 | 8.52620 | 363 ft | 19 kts | 207° |
| 2026-05-05 07:15 | 50.03124 | 8.52595 | 363 ft | 1 kts | 180° |
| 2026-05-05 07:15 | 50.03117 | 8.52595 | 364 ft | 0 kts | 180° |
| 2026-05-05 07:16 | 50.03044 | 8.52595 | 364 ft | 52 kts | 180° |
| 2026-05-05 07:16 | 50.02290 | 8.52604 | 408 ft | 151 kts | 180° |
| 2026-05-05 07:16 | 50.01147 | 8.52662 | 1202 ft | 180 kts | 180° |
| 2026-05-05 07:16 | 49.99952 | 8.52671 | 2405 ft | 185 kts | 182° |
| 2026-05-05 07:17 | 49.98600 | 8.52671 | 3415 ft | 204 kts | 182° |
| 2026-05-05 07:17 | 49.97148 | 8.52834 | 4392 ft | 226 kts | 166° |
| 2026-05-05 07:17 | 49.95818 | 8.54167 | 5436 ft | 244 kts | 128° |
| 2026-05-05 07:17 | 49.95063 | 8.56500 | 6643 ft | 252 kts | 112° |
| 2026-05-05 07:18 | 49.94321 | 8.58995 | 7825 ft | 261 kts | 116° |
| 2026-05-05 07:18 | 49.93743 | 8.61694 | 8800 ft | 278 kts | 96° |
| 2026-05-05 07:18 | 49.93767 | 8.64752 | 9637 ft | 297 kts | 85° |
| 2026-05-05 07:18 | 49.93700 | 8.67969 | 10712 ft | 308 kts | 105° |
| 2026-05-05 07:19 | 49.92722 | 8.70857 | 11877 ft | 307 kts | 137° |
| 2026-05-05 07:19 | 49.91026 | 8.72735 | 13030 ft | 305 kts | 156° |
| 2026-05-05 07:19 | 49.89277 | 8.74406 | 14037 ft | 316 kts | 147° |
| 2026-05-05 07:19 | 49.87872 | 8.76840 | 14973 ft | 332 kts | 124° |
| 2026-05-05 07:20 | 49.86778 | 8.80029 | 16008 ft | 339 kts | 121° |
| 2026-05-05 07:20 | 49.85691 | 8.83137 | 16899 ft | 346 kts | 123° |
| 2026-05-05 07:20 | 49.84533 | 8.86299 | 17791 ft | 352 kts | 123° |
| 2026-05-05 07:20 | 49.83321 | 8.89623 | 18679 ft | 359 kts | 123° |
| 2026-05-05 07:21 | 49.82113 | 8.92956 | 19522 ft | 366 kts | 123° |
| 2026-05-05 07:21 | 49.80906 | 8.96276 | 20318 ft | 373 kts | 124° |
| 2026-05-05 07:21 | 49.79612 | 8.99825 | 21122 ft | 380 kts | 124° |
| 2026-05-05 07:21 | 49.78303 | 9.03413 | 21891 ft | 386 kts | 124° |
| 2026-05-05 07:22 | 49.77046 | 9.07062 | 22615 ft | 395 kts | 119° |
| 2026-05-05 07:22 | 49.76005 | 9.11059 | 23315 ft | 405 kts | 110° |
| 2026-05-05 07:22 | 49.75281 | 9.15251 | 24005 ft | 412 kts | 106° |
| 2026-05-05 07:22 | 49.74309 | 9.19422 | 24633 ft | 414 kts | 123° |
| 2026-05-05 07:23 | 49.72589 | 9.22858 | 25316 ft | 408 kts | 140° |
| 2026-05-05 07:23 | 49.70609 | 9.26041 | 25938 ft | 415 kts | 139° |
| 2026-05-05 07:23 | 49.68669 | 9.29383 | 26523 ft | 423 kts | 136° |
| 2026-05-05 07:23 | 49.66730 | 9.32838 | 27114 ft | 429 kts | 136° |
| 2026-05-05 07:24 | 49.64761 | 9.36305 | 27674 ft | 434 kts | 137° |
| 2026-05-05 07:24 | 49.62654 | 9.39584 | 28211 ft | 435 kts | 144° |
| 2026-05-05 07:24 | 49.60331 | 9.42529 | 28751 ft | 434 kts | 152° |
| 2026-05-05 07:24 | 49.57801 | 9.45025 | 29300 ft | 433 kts | 158° |
| 2026-05-05 07:25 | 49.55187 | 9.47377 | 29783 ft | 439 kts | 157° |
| 2026-05-05 07:25 | 49.52565 | 9.49783 | 30265 ft | 445 kts | 156° |
| 2026-05-05 07:25 | 49.49923 | 9.52239 | 30726 ft | 450 kts | 156° |
| 2026-05-05 07:26 | 49.44577 | 9.57165 | 30813 ft | 447 kts | 157° |
| 2026-05-05 07:26 | 49.39185 | 9.62075 | 30886 ft | 460 kts | 157° |
| 2026-05-05 07:26 | 49.36422 | 9.64694 | 30884 ft | 471 kts | 152° |
| 2026-05-05 07:27 | 49.33944 | 9.67533 | 30884 ft | 482 kts | 147° |
| 2026-05-05 07:27 | 49.28978 | 9.74789 | 30884 ft | 497 kts | 141° |
| 2026-05-05 07:28 | 49.24017 | 9.82235 | 30884 ft | 505 kts | 141° |
| 2026-05-05 07:28 | 49.19020 | 9.89733 | 30884 ft | 512 kts | 141° |
| 2026-05-05 07:29 | 49.13954 | 9.97376 | 30885 ft | 518 kts | 140° |
| 2026-05-05 07:29 | 49.08815 | 10.05120 | 30885 ft | 523 kts | 140° |
| 2026-05-05 07:30 | 49.03600 | 10.12862 | 30887 ft | 526 kts | 140° |
| 2026-05-05 07:30 | 48.95513 | 10.24176 | 30899 ft | 531 kts | 140° |
| 2026-05-05 07:31 | 48.90127 | 10.31767 | 30907 ft | 533 kts | 139° |
| 2026-05-05 07:32 | 48.81781 | 10.43537 | 30907 ft | 535 kts | 138° |
| 2026-05-05 07:32 | 48.78978 | 10.47896 | 30908 ft | 537 kts | 134° |
| 2026-05-05 07:33 | 48.74598 | 10.55124 | 30902 ft | 538 kts | 134° |
| 2026-05-05 07:33 | 48.69496 | 10.63327 | 30892 ft | 538 kts | 135° |
| 2026-05-05 07:34 | 48.64418 | 10.71417 | 30885 ft | 538 kts | 136° |
| 2026-05-05 07:34 | 48.59282 | 10.79574 | 30885 ft | 538 kts | 136° |
| 2026-05-05 07:35 | 48.54160 | 10.87741 | 30884 ft | 539 kts | 135° |
| 2026-05-05 07:35 | 48.49036 | 10.95948 | 30885 ft | 539 kts | 135° |
| 2026-05-05 07:36 | 48.43888 | 11.04022 | 30885 ft | 540 kts | 136° |
| 2026-05-05 07:36 | 48.38706 | 11.12059 | 30885 ft | 542 kts | 136° |
| 2026-05-05 07:37 | 48.33464 | 11.20191 | 30885 ft | 543 kts | 135° |
| 2026-05-05 07:37 | 48.28345 | 11.28413 | 30885 ft | 544 kts | 131° |
| 2026-05-05 07:38 | 48.23982 | 11.37630 | 30886 ft | 546 kts | 120° |
| 2026-05-05 07:38 | 48.20184 | 11.47410 | 30885 ft | 546 kts | 119° |
| 2026-05-05 07:39 | 48.16355 | 11.57153 | 30885 ft | 547 kts | 119° |
| 2026-05-05 07:39 | 48.12532 | 11.66917 | 30885 ft | 547 kts | 120° |
| 2026-05-05 07:40 | 48.08699 | 11.76708 | 30885 ft | 547 kts | 120° |
| 2026-05-05 07:40 | 48.04877 | 11.86443 | 30885 ft | 547 kts | 120° |
| 2026-05-05 07:41 | 48.01031 | 11.96214 | 30885 ft | 547 kts | 120° |
| 2026-05-05 07:41 | 47.97181 | 12.05936 | 30884 ft | 547 kts | 121° |
| 2026-05-05 07:42 | 47.92778 | 12.15186 | 30884 ft | 547 kts | 131° |
| 2026-05-05 07:42 | 47.87419 | 12.22856 | 30885 ft | 544 kts | 142° |
| 2026-05-05 07:43 | 47.81730 | 12.29962 | 30885 ft | 544 kts | 141° |
| 2026-05-05 07:43 | 47.76018 | 12.37227 | 30885 ft | 544 kts | 142° |
| 2026-05-05 07:44 | 47.70258 | 12.44434 | 30885 ft | 543 kts | 142° |
| 2026-05-05 07:44 | 47.64439 | 12.51525 | 30884 ft | 542 kts | 146° |
| 2026-05-05 07:45 | 47.58130 | 12.57455 | 30885 ft | 538 kts | 154° |
| 2026-05-05 07:45 | 47.51743 | 12.62896 | 30885 ft | 538 kts | 153° |
| 2026-05-05 07:46 | 47.45789 | 12.67993 | 30884 ft | 537 kts | 154° |
| 2026-05-05 07:46 | 47.39241 | 12.73502 | 30885 ft | 537 kts | 155° |
| 2026-05-05 07:47 | 47.32764 | 12.78914 | 30885 ft | 536 kts | 155° |
| 2026-05-05 07:47 | 47.26370 | 12.84235 | 30885 ft | 536 kts | 155° |
| 2026-05-05 07:48 | 47.19940 | 12.89565 | 30885 ft | 536 kts | 155° |
| 2026-05-05 07:48 | 47.13515 | 12.94875 | 30890 ft | 536 kts | 155° |
| 2026-05-05 07:49 | 47.07078 | 13.00178 | 30885 ft | 536 kts | 154° |
| 2026-05-05 07:49 | 47.00720 | 13.05405 | 30569 ft | 516 kts | 154° |
| 2026-05-05 07:50 | 46.97637 | 13.07942 | 29897 ft | 492 kts | 154° |
| 2026-05-05 07:50 | 46.94750 | 13.10308 | 29516 ft | 465 kts | 153° |
| 2026-05-05 07:50 | 46.91978 | 13.12571 | 28500 ft | 459 kts | 153° |
| 2026-05-05 07:50 | 46.89364 | 13.14701 | 27455 ft | 453 kts | 153° |
| 2026-05-05 07:51 | 46.86678 | 13.16888 | 26592 ft | 441 kts | 152° |
| 2026-05-05 07:51 | 46.84039 | 13.19036 | 25622 ft | 433 kts | 152° |
| 2026-05-05 07:51 | 46.81464 | 13.21128 | 24687 ft | 424 kts | 152° |
| 2026-05-05 07:51 | 46.78926 | 13.23189 | 23768 ft | 414 kts | 152° |
| 2026-05-05 07:52 | 46.76476 | 13.25177 | 22929 ft | 403 kts | 152° |
| 2026-05-05 07:52 | 46.74089 | 13.27111 | 22368 ft | 387 kts | 152° |
| 2026-05-05 07:52 | 46.71764 | 13.28990 | 21859 ft | 389 kts | 152° |
| 2026-05-05 07:52 | 46.69383 | 13.30914 | 21324 ft | 386 kts | 152° |
| 2026-05-05 07:53 | 46.67180 | 13.32697 | 20833 ft | 373 kts | 152° |
| 2026-05-05 07:53 | 46.64891 | 13.34543 | 20334 ft | 379 kts | 152° |
| 2026-05-05 07:53 | 46.62642 | 13.36358 | 19821 ft | 365 kts | 152° |
| 2026-05-05 07:53 | 46.60453 | 13.38123 | 19349 ft | 368 kts | 152° |
| 2026-05-05 07:54 | 46.58228 | 13.39913 | 18844 ft | 368 kts | 152° |
| 2026-05-05 07:54 | 46.56019 | 13.41691 | 18361 ft | 361 kts | 152° |
| 2026-05-05 07:54 | 46.53840 | 13.43442 | 17876 ft | 355 kts | 152° |
| 2026-05-05 07:54 | 46.51698 | 13.45161 | 17400 ft | 349 kts | 152° |
| 2026-05-05 07:55 | 46.49599 | 13.46844 | 16932 ft | 343 kts | 152° |
| 2026-05-05 07:55 | 46.47540 | 13.48495 | 16472 ft | 340 kts | 152° |
| 2026-05-05 07:55 | 46.45482 | 13.50143 | 16013 ft | 341 kts | 152° |
| 2026-05-05 07:55 | 46.43413 | 13.51718 | 15553 ft | 334 kts | 158° |
| 2026-05-05 07:56 | 46.41207 | 13.52548 | 15110 ft | 324 kts | 176° |
| 2026-05-05 07:56 | 46.38993 | 13.52393 | 14672 ft | 321 kts | 191° |
| 2026-05-05 07:56 | 46.36810 | 13.51737 | 14220 ft | 319 kts | 193° |
| 2026-05-05 07:56 | 46.34661 | 13.51095 | 13774 ft | 313 kts | 192° |
| 2026-05-05 07:57 | 46.32550 | 13.50487 | 13339 ft | 309 kts | 192° |
| 2026-05-05 07:57 | 46.30440 | 13.49863 | 12904 ft | 312 kts | 192° |
| 2026-05-05 07:57 | 46.28360 | 13.49242 | 12471 ft | 305 kts | 192° |
| 2026-05-05 07:57 | 46.26299 | 13.48626 | 12045 ft | 301 kts | 191° |
| 2026-05-05 07:58 | 46.24241 | 13.48010 | 11620 ft | 305 kts | 191° |
| 2026-05-05 07:58 | 46.22174 | 13.47392 | 11189 ft | 298 kts | 191° |
| 2026-05-05 07:58 | 46.20169 | 13.46806 | 10776 ft | 299 kts | 191° |
| 2026-05-05 07:58 | 46.18147 | 13.46229 | 10360 ft | 297 kts | 191° |
| 2026-05-05 07:59 | 46.16145 | 13.45655 | 10108 ft | 285 kts | 191° |
| 2026-05-05 07:59 | 46.14252 | 13.45110 | 9984 ft | 270 kts | 191° |
| 2026-05-05 07:59 | 46.12423 | 13.44584 | 9611 ft | 276 kts | 191° |
| 2026-05-05 07:59 | 46.10556 | 13.44049 | 9252 ft | 271 kts | 191° |
| 2026-05-05 08:00 | 46.08718 | 13.43522 | 8904 ft | 267 kts | 191° |
| 2026-05-05 08:00 | 46.06879 | 13.42995 | 8561 ft | 272 kts | 191° |
| 2026-05-05 08:00 | 46.05051 | 13.42473 | 8211 ft | 267 kts | 191° |
| 2026-05-05 08:00 | 46.03261 | 13.41960 | 7873 ft | 263 kts | 191° |
| 2026-05-05 08:01 | 46.01448 | 13.41442 | 7531 ft | 267 kts | 191° |
| 2026-05-05 08:01 | 45.99672 | 13.40930 | 7192 ft | 262 kts | 191° |
| 2026-05-05 08:01 | 45.97906 | 13.40413 | 6858 ft | 260 kts | 191° |
| 2026-05-05 08:01 | 45.96123 | 13.39892 | 6521 ft | 263 kts | 191° |
| 2026-05-05 08:02 | 45.94340 | 13.39372 | 6192 ft | 257 kts | 191° |
| 2026-05-05 08:02 | 45.92617 | 13.38868 | 6018 ft | 246 kts | 191° |
| 2026-05-05 08:02 | 45.91008 | 13.38398 | 5937 ft | 233 kts | 191° |
| 2026-05-05 08:02 | 45.89513 | 13.37962 | 5852 ft | 221 kts | 191° |
| 2026-05-05 08:03 | 45.88011 | 13.37523 | 5760 ft | 211 kts | 191° |
| 2026-05-05 08:03 | 45.86607 | 13.37113 | 5592 ft | 205 kts | 191° |
| 2026-05-05 08:03 | 45.85224 | 13.36710 | 5359 ft | 203 kts | 191° |
| 2026-05-05 08:03 | 45.83889 | 13.36072 | 5074 ft | 202 kts | 215° |
| 2026-05-05 08:04 | 45.83052 | 13.34536 | 4864 ft | 198 kts | 250° |
| 2026-05-05 08:04 | 45.82872 | 13.32585 | 4575 ft | 199 kts | 270° |
| 2026-05-05 08:04 | 45.82873 | 13.30620 | 4346 ft | 198 kts | 269° |
| 2026-05-05 08:04 | 45.82864 | 13.28664 | 4129 ft | 197 kts | 270° |
| 2026-05-05 08:05 | 45.82870 | 13.26697 | 3917 ft | 197 kts | 270° |
| 2026-05-05 08:05 | 45.82877 | 13.24731 | 3706 ft | 196 kts | 270° |
| 2026-05-05 08:05 | 45.82724 | 13.22822 | 3499 ft | 196 kts | 246° |
| 2026-05-05 08:05 | 45.81784 | 13.21484 | 3454 ft | 195 kts | 199° |
| 2026-05-05 08:06 | 45.80458 | 13.21555 | 3461 ft | 198 kts | 152° |
| 2026-05-05 08:06 | 45.79567 | 13.22990 | 3461 ft | 197 kts | 105° |
| 2026-05-05 08:06 | 45.79493 | 13.24941 | 3439 ft | 198 kts | 85° |
| 2026-05-05 08:06 | 45.79690 | 13.26908 | 3067 ft | 204 kts | 75° |
| 2026-05-05 08:07 | 45.80097 | 13.28738 | 2969 ft | 180 kts | 68° |
| 2026-05-05 08:07 | 45.80617 | 13.30360 | 2975 ft | 178 kts | 59° |
| 2026-05-05 08:07 | 45.81474 | 13.31598 | 2946 ft | 186 kts | 21° |
| 2026-05-05 08:07 | 45.82770 | 13.31612 | 2864 ft | 192 kts | 335° |
| 2026-05-05 08:08 | 45.83686 | 13.30299 | 2930 ft | 188 kts | 299° |
| 2026-05-05 08:08 | 45.84396 | 13.28791 | 3796 ft | 184 kts | 317° |
| 2026-05-05 08:08 | 45.85493 | 13.27756 | 4241 ft | 194 kts | 335° |
| 2026-05-05 08:08 | 45.86720 | 13.27060 | 4074 ft | 191 kts | 339° |
| 2026-05-05 08:09 | 45.87966 | 13.26394 | 3789 ft | 192 kts | 339° |
| 2026-05-05 08:09 | 45.89220 | 13.25722 | 3574 ft | 190 kts | 339° |
| 2026-05-05 08:09 | 45.90385 | 13.24903 | 3340 ft | 189 kts | 318° |
| 2026-05-05 08:09 | 45.90950 | 13.23263 | 3146 ft | 184 kts | 269° |
| 2026-05-05 08:10 | 45.90568 | 13.21600 | 3071 ft | 172 kts | 237° |
| 2026-05-05 08:10 | 45.89755 | 13.20393 | 2964 ft | 165 kts | 217° |
| 2026-05-05 08:10 | 45.88718 | 13.19673 | 2956 ft | 170 kts | 187° |
| 2026-05-05 08:10 | 45.87552 | 13.19804 | 2976 ft | 170 kts | 171° |
| 2026-05-05 08:11 | 45.86371 | 13.20014 | 2967 ft | 169 kts | 173° |
| 2026-05-05 08:11 | 45.85205 | 13.20212 | 2965 ft | 170 kts | 173° |
| 2026-05-05 08:11 | 45.84040 | 13.20451 | 2962 ft | 170 kts | 163° |
| 2026-05-05 08:11 | 45.83100 | 13.21407 | 2971 ft | 168 kts | 120° |
| 2026-05-05 08:12 | 45.82858 | 13.22992 | 2978 ft | 167 kts | 85° |
| 2026-05-05 08:12 | 45.82885 | 13.24679 | 2875 ft | 171 kts | 91° |
| 2026-05-05 08:12 | 45.82868 | 13.26386 | 2613 ft | 171 kts | 89° |
| 2026-05-05 08:12 | 45.82861 | 13.28092 | 2377 ft | 169 kts | 89° |
| 2026-05-05 08:13 | 45.82855 | 13.29764 | 2155 ft | 175 kts | 89° |
| 2026-05-05 08:13 | 45.82849 | 13.31559 | 1904 ft | 183 kts | 89° |
| 2026-05-05 08:13 | 45.82842 | 13.33374 | 1648 ft | 180 kts | 89° |
| 2026-05-05 08:13 | 45.82835 | 13.35135 | 1402 ft | 172 kts | 89° |
| 2026-05-05 08:14 | 45.82829 | 13.36782 | 1194 ft | 154 kts | 90° |
| 2026-05-05 08:14 | 45.82823 | 13.38174 | 1002 ft | 127 kts | 90° |
| 2026-05-05 08:14 | 45.82818 | 13.39425 | 824 ft | 123 kts | 90° |
| 2026-05-05 08:14 | 45.82812 | 13.40644 | 659 ft | 122 kts | 90° |
| 2026-05-05 08:15 | 45.82809 | 13.41849 | 506 ft | 121 kts | 89° |
| 2026-05-05 08:15 | 45.82798 | 13.43019 | 327 ft | 123 kts | 89° |
| 2026-05-05 08:15 | 45.82804 | 13.44321 | 178 ft | 132 kts | 90° |
| 2026-05-05 08:15 | 45.82797 | 13.45574 | 47 ft | 116 kts | 90° |
| 2026-05-05 08:16 | 45.82795 | 13.46542 | 36 ft | 75 kts | 90° |
| 2026-05-05 08:16 | 45.82785 | 13.47194 | 33 ft | 67 kts | 90° |
| 2026-05-05 08:16 | 45.82697 | 13.47745 | 36 ft | 50 kts | 152° |
| 2026-05-05 08:16 | 45.82529 | 13.47938 | 36 ft | 0 kts | 139° |
| 2026-05-05 08:17 | 45.82527 | 13.47940 | 36 ft | 0 kts | 139° |
| 2026-05-05 08:17 | 45.82525 | 13.47943 | 36 ft | 0 kts | 139° |
| 2026-05-05 08:17 | 45.82524 | 13.47945 | 36 ft | 0 kts | 139° |
| 2026-05-05 08:17 | 45.82522 | 13.47948 | 36 ft | 1 kts | 139° |
| 2026-05-05 08:18 | 45.82496 | 13.47975 | 36 ft | 7 kts | 143° |
| 2026-05-05 08:18 | 45.82438 | 13.48042 | 35 ft | 14 kts | 140° |
| 2026-05-05 08:18 | 45.82344 | 13.48154 | 33 ft | 20 kts | 140° |
| 2026-05-05 08:18 | 45.82232 | 13.48211 | 32 ft | 14 kts | 167° |
| 2026-05-05 08:19 | 45.82186 | 13.48224 | 32 ft | 0 kts | 170° |